Innsbruck

Airport
ICAO code: 
LOWI
IATA Code: 
INN
Summary
ICAO Region: 
EUR
Territory: 
Location: 
Innsbruck, Tyrol
Serving: 
Innsbruck
Elevation: 
1906 ft
Coordinates: 
Aerial View: 
47° 15' 36.724" N, 11° 20' 38.4" E
Metar
Observation
LOWI 271850Z VRB06KT 9999 SCT070 BKN100 23/07 Q1017 NOSIG
Station
Innsbruck-Flughafen
Date/Time
2022-05-27 18:50:00
Wind speed
06 kts
Lowest cloud amount
scattered clouds
Temperature
23°C
Dew point
7°C
Humidity
35%
QNH
1017 hPa
Weather condition
n/a

International airport serving the Tyrol.

Climatology

Humid Continental climate (Köppen climate classification Dfb)

Runways

Designator Length Width Surface Rops
8/26 2000 45 ASP Yes/Yes
Airport map: 
Aerial View: 

SKYbrary Partners:

Safety knowledge contributed by: